createdAt,value
2018-11-04T00:00:06.821Z,3.50
2018-11-04T00:01:06.831Z,3.62
2018-11-04T00:02:06.851Z,3.66
2018-11-04T00:03:06.860Z,3.69
2018-11-04T00:04:06.903Z,3.69
2018-11-04T00:05:06.895Z,3.68
2018-11-04T00:06:06.926Z,3.70
2018-11-04T00:07:06.923Z,3.66
2018-11-04T00:08:06.944Z,3.50
2018-11-04T00:09:06.953Z,3.70
2018-11-04T00:10:06.966Z,3.73
2018-11-04T00:11:06.990Z,3.77
2018-11-04T00:12:07.007Z,3.81
2018-11-04T00:13:07.053Z,3.78
2018-11-04T00:14:07.032Z,3.53
2018-11-04T00:15:07.044Z,3.68
2018-11-04T00:16:07.061Z,3.53
2018-11-04T00:17:07.080Z,3.53
2018-11-04T00:18:07.103Z,3.63
2018-11-04T00:19:07.111Z,3.74
2018-11-04T00:20:07.129Z,3.81
2018-11-04T00:21:07.137Z,3.83
2018-11-04T00:22:07.154Z,3.70
2018-11-04T00:23:07.168Z,3.83
2018-11-04T00:24:07.309Z,3.92
2018-11-04T00:25:07.201Z,3.99
2018-11-04T00:26:07.211Z,3.81
2018-11-04T00:27:07.266Z,3.92
2018-11-04T00:28:07.250Z,3.96
2018-11-04T00:29:07.263Z,4.06
2018-11-04T00:30:07.280Z,4.06
2018-11-04T00:31:07.296Z,4.04
2018-11-04T00:32:07.313Z,4.08
2018-11-04T00:33:07.327Z,4.04
2018-11-04T00:34:07.341Z,4.05
2018-11-04T00:35:07.352Z,4.01
2018-11-04T00:36:07.369Z,4.08
2018-11-04T00:37:07.417Z,4.04
2018-11-04T00:38:07.409Z,4.02
2018-11-04T00:39:07.414Z,4.08
2018-11-04T00:40:07.435Z,3.84
2018-11-04T00:41:07.449Z,3.96
2018-11-04T00:42:07.462Z,3.87
2018-11-04T00:43:07.498Z,3.88
2018-11-04T00:44:07.500Z,3.84
2018-11-04T00:45:07.553Z,3.80
2018-11-04T00:46:07.525Z,3.86
2018-11-04T00:47:07.548Z,4.04
2018-11-04T00:48:07.566Z,4.13
2018-11-04T00:49:07.579Z,4.14
2018-11-04T00:50:07.593Z,4.17
2018-11-04T00:51:07.606Z,4.19
2018-11-04T00:52:07.622Z,4.40
2018-11-04T00:53:07.644Z,4.45
2018-11-04T00:54:07.653Z,4.44
2018-11-04T00:55:07.673Z,4.55
2018-11-04T00:56:07.688Z,4.53
2018-11-04T00:57:07.703Z,4.59
2018-11-04T00:58:07.718Z,4.56
2018-11-04T00:59:07.733Z,4.53
2018-11-04T01:00:07.753Z,4.52
2018-11-04T01:01:07.764Z,4.23
2018-11-04T01:02:07.785Z,4.17
2018-11-04T01:03:07.794Z,4.38
2018-11-04T01:04:07.816Z,4.23
2018-11-04T01:05:07.829Z,4.02
2018-11-04T01:06:07.843Z,4.14
2018-11-04T01:07:07.859Z,4.34
2018-11-04T01:08:07.871Z,4.19
2018-11-04T01:09:07.939Z,4.35
2018-11-04T01:10:07.913Z,4.26
2018-11-04T01:11:07.928Z,4.40
2018-11-04T01:12:07.942Z,4.37
2018-11-04T01:13:07.959Z,4.53
2018-11-04T01:14:07.971Z,4.59
2018-11-04T01:15:07.996Z,4.62
2018-11-04T01:16:08.023Z,4.59
2018-11-04T01:17:08.039Z,4.32
2018-11-04T01:18:08.056Z,4.30
2018-11-04T01:19:08.057Z,4.42
2018-11-04T01:20:09.397Z,4.24
2018-11-04T01:21:08.099Z,4.20
2018-11-04T01:22:08.094Z,4.17
2018-11-04T01:23:08.110Z,4.37
2018-11-04T01:24:08.134Z,4.23
2018-11-04T01:25:08.143Z,4.19
2018-11-04T01:26:08.161Z,4.30
2018-11-04T01:27:08.174Z,4.40
2018-11-04T01:28:08.192Z,4.49
2018-11-04T01:29:08.236Z,4.52
2018-11-04T01:30:08.222Z,4.49
2018-11-04T01:31:08.240Z,4.50
2018-11-04T01:32:08.257Z,4.59
2018-11-04T01:33:08.272Z,4.73
2018-11-04T01:34:08.332Z,4.70
2018-11-04T01:35:08.307Z,4.75
2018-11-04T01:36:08.323Z,4.86
2018-11-04T01:37:08.342Z,4.67
2018-11-04T01:38:08.349Z,4.71
2018-11-04T01:39:08.373Z,4.80
2018-11-04T01:40:08.386Z,4.75
2018-11-04T01:41:08.399Z,4.86
2018-11-04T01:42:08.412Z,5.00
2018-11-04T01:43:08.429Z,4.96
2018-11-04T01:44:08.449Z,5.02
2018-11-04T01:45:08.471Z,4.87
2018-11-04T01:46:08.488Z,4.71
2018-11-04T01:47:08.492Z,4.78
2018-11-04T01:48:08.522Z,4.86
2018-11-04T01:49:08.530Z,4.94
2018-11-04T01:50:08.539Z,4.78
2018-11-04T01:51:08.559Z,4.66
2018-11-04T01:52:08.575Z,4.80
2018-11-04T01:53:08.593Z,4.90
2018-11-04T01:54:08.608Z,4.78
2018-11-04T01:55:08.631Z,4.73
2018-11-04T01:56:08.643Z,4.50
2018-11-04T01:57:08.659Z,4.50
2018-11-04T01:58:08.676Z,4.56
2018-11-04T01:59:08.718Z,4.38
2018-11-04T02:00:08.705Z,4.34
2018-11-04T02:01:08.738Z,4.45
2018-11-04T02:02:08.745Z,4.63
2018-11-04T02:03:08.751Z,4.78
2018-11-04T02:04:08.768Z,5.08
2018-11-04T02:05:08.791Z,4.92
2018-11-04T02:06:08.801Z,5.07
2018-11-04T02:07:08.825Z,5.14
2018-11-04T02:08:08.848Z,5.26
2018-11-04T02:09:08.859Z,5.28
2018-11-04T02:10:08.865Z,5.23
2018-11-04T02:11:08.893Z,5.35
2018-11-04T02:12:08.894Z,5.05
2018-11-04T02:13:08.913Z,5.08
2018-11-04T02:14:08.929Z,4.99
2018-11-04T02:15:08.947Z,5.11
2018-11-04T02:16:08.965Z,5.11
2018-11-04T02:17:08.982Z,5.23
2018-11-04T02:18:09.014Z,5.28
2018-11-04T02:19:09.011Z,5.32
2018-11-04T02:20:09.029Z,5.41
2018-11-04T02:21:09.043Z,5.21
2018-11-04T02:22:09.064Z,5.18
2018-11-04T02:23:09.080Z,5.18
2018-11-04T02:24:09.099Z,5.20
2018-11-04T02:25:09.109Z,5.18
2018-11-04T02:26:09.125Z,5.02
2018-11-04T02:27:09.144Z,4.87
2018-11-04T02:28:09.163Z,4.82
2018-11-04T02:29:09.182Z,4.82
2018-11-04T02:30:09.199Z,4.87
2018-11-04T02:31:09.236Z,4.74
2018-11-04T02:32:09.225Z,4.78
2018-11-04T02:33:09.252Z,5.02
2018-11-04T02:34:09.293Z,5.12
2018-11-04T02:35:09.279Z,4.94
2018-11-04T02:36:09.301Z,5.05
2018-11-04T02:37:09.317Z,4.93
2018-11-04T02:38:09.328Z,4.87
2018-11-04T02:39:09.352Z,4.90
2018-11-04T02:40:09.363Z,4.86
2018-11-04T02:41:09.373Z,5.00
2018-11-04T02:42:09.393Z,5.26
2018-11-04T02:43:09.414Z,5.21
2018-11-04T02:44:09.426Z,5.05
2018-11-04T02:45:09.442Z,5.11
2018-11-04T02:46:09.452Z,5.04
2018-11-04T02:47:09.606Z,5.02
2018-11-04T02:48:09.493Z,5.08
2018-11-04T02:49:09.503Z,5.20
2018-11-04T02:50:09.524Z,5.41
2018-11-04T02:51:09.542Z,5.56
2018-11-04T02:52:09.552Z,5.62
2018-11-04T02:53:09.576Z,5.79
2018-11-04T02:54:09.588Z,5.71
2018-11-04T02:55:09.616Z,5.84
2018-11-04T02:56:09.623Z,5.84
2018-11-04T02:57:09.649Z,5.75
2018-11-04T02:58:09.649Z,5.80
2018-11-04T02:59:09.668Z,5.72
2018-11-04T03:00:09.683Z,5.71
2018-11-04T03:01:09.708Z,5.47
2018-11-04T03:02:09.827Z,5.56
2018-11-04T03:03:09.734Z,5.51
2018-11-04T03:04:09.751Z,5.65
2018-11-04T03:05:09.768Z,5.64
2018-11-04T03:06:09.784Z,5.54
2018-11-04T03:07:09.808Z,5.50
2018-11-04T03:08:09.823Z,5.44
2018-11-04T03:09:09.836Z,5.54
2018-11-04T03:10:09.848Z,5.56
2018-11-04T03:11:09.872Z,5.44
2018-11-04T03:12:09.884Z,5.56
2018-11-04T03:13:09.911Z,5.41
2018-11-04T03:14:09.923Z,5.23
2018-11-04T03:15:09.933Z,5.21
2018-11-04T03:16:09.952Z,5.29
2018-11-04T03:17:09.981Z,5.43
2018-11-04T03:18:09.990Z,5.54
2018-11-04T03:19:10.003Z,5.71
2018-11-04T03:20:10.023Z,5.82
2018-11-04T03:21:10.047Z,5.83
2018-11-04T03:22:10.050Z,5.89
2018-11-04T03:23:10.066Z,5.80
2018-11-04T03:24:10.092Z,5.73
2018-11-04T03:25:10.099Z,5.73
2018-11-04T03:26:10.133Z,5.90
2018-11-04T03:27:10.174Z,5.90
2018-11-04T03:28:10.167Z,5.65
2018-11-04T03:29:10.169Z,5.83
2018-11-04T03:30:10.187Z,5.86
2018-11-04T03:31:10.203Z,5.80
2018-11-04T03:32:10.235Z,5.66
2018-11-04T03:33:10.239Z,5.83
2018-11-04T03:34:10.268Z,5.90
2018-11-04T03:35:10.278Z,5.80
2018-11-04T03:36:10.288Z,5.87
2018-11-04T03:37:10.306Z,5.71
2018-11-04T03:38:10.319Z,5.64
2018-11-04T03:39:10.340Z,5.66
2018-11-04T03:40:10.368Z,5.86
2018-11-04T03:41:10.377Z,5.69
2018-11-04T03:42:10.390Z,5.86
2018-11-04T03:43:10.407Z,6.04
2018-11-04T03:44:10.434Z,6.12
2018-11-04T03:45:10.440Z,6.12
2018-11-04T03:46:10.475Z,6.26
2018-11-04T03:47:10.466Z,6.11
2018-11-04T03:48:10.481Z,6.14
2018-11-04T03:49:10.504Z,6.12
2018-11-04T03:50:10.520Z,6.07
2018-11-04T03:51:10.552Z,6.02
2018-11-04T03:52:10.552Z,5.89
2018-11-04T03:53:10.575Z,5.80
2018-11-04T03:54:10.588Z,5.84
2018-11-04T03:55:10.599Z,5.83
2018-11-04T03:56:10.628Z,5.86
2018-11-04T03:57:10.642Z,5.90
2018-11-04T03:58:10.652Z,6.01
2018-11-04T03:59:10.674Z,5.87
2018-11-04T04:00:10.685Z,5.80
2018-11-04T04:01:10.707Z,5.83
2018-11-04T04:02:10.720Z,5.99
2018-11-04T04:03:10.740Z,6.07
2018-11-04T04:04:10.772Z,6.02
2018-11-04T04:05:10.784Z,6.02
2018-11-04T04:06:10.788Z,5.83
2018-11-04T04:07:10.807Z,5.98
2018-11-04T04:08:10.828Z,6.17
2018-11-04T04:09:10.839Z,6.05
2018-11-04T04:10:10.858Z,6.20
2018-11-04T04:11:10.879Z,6.28
2018-11-04T04:12:10.892Z,6.42
2018-11-04T04:13:10.911Z,6.45
2018-11-04T04:14:10.927Z,6.54
2018-11-04T04:15:10.939Z,6.54
2018-11-04T04:16:10.955Z,6.69
2018-11-04T04:17:10.971Z,6.75
2018-11-04T04:18:10.992Z,6.63
2018-11-04T04:19:11.007Z,6.41
2018-11-04T04:20:11.028Z,6.26
2018-11-04T04:21:11.046Z,6.22
2018-11-04T04:22:11.058Z,6.20
2018-11-04T04:23:11.079Z,6.30
2018-11-04T04:24:11.090Z,6.44
2018-11-04T04:25:11.109Z,6.33
2018-11-04T04:26:11.125Z,6.26
2018-11-04T04:27:11.146Z,6.04
2018-11-04T04:28:11.173Z,6.26
2018-11-04T04:29:11.184Z,6.46
2018-11-04T04:30:11.199Z,6.62
2018-11-04T04:31:11.211Z,6.70
2018-11-04T04:32:11.229Z,6.79
2018-11-04T04:33:11.246Z,6.82
2018-11-04T04:34:11.262Z,6.93
2018-11-04T04:35:11.285Z,6.78
2018-11-04T04:36:11.303Z,6.67
2018-11-04T04:37:11.316Z,6.60
2018-11-04T04:38:11.342Z,6.60
2018-11-04T04:39:11.353Z,6.74
2018-11-04T04:40:11.368Z,6.54
2018-11-04T04:41:11.381Z,6.44
2018-11-04T04:42:11.402Z,6.49
2018-11-04T04:43:11.415Z,6.60
2018-11-04T04:44:11.438Z,6.79
2018-11-04T04:45:11.452Z,6.89
2018-11-04T04:46:11.468Z,6.92
2018-11-04T04:47:11.485Z,6.99
2018-11-04T04:48:11.501Z,6.95
2018-11-04T04:49:11.517Z,6.93
2018-11-04T04:50:11.547Z,6.88
2018-11-04T04:51:11.555Z,6.97
2018-11-04T04:52:11.570Z,6.96
2018-11-04T04:53:11.586Z,7.07
2018-11-04T04:54:11.606Z,7.02
2018-11-04T04:55:11.623Z,6.96
2018-11-04T04:56:11.640Z,7.20
2018-11-04T04:57:11.657Z,7.25
2018-11-04T04:58:11.674Z,7.20
2018-11-04T04:59:11.694Z,7.29
2018-11-04T05:00:11.723Z,7.35
2018-11-04T05:01:11.738Z,7.15
2018-11-04T05:02:11.756Z,7.25
2018-11-04T05:03:11.761Z,7.42
2018-11-04T05:04:11.777Z,7.42
2018-11-04T05:05:11.793Z,7.33
2018-11-04T05:06:11.822Z,7.43
2018-11-04T05:07:11.829Z,7.54
2018-11-04T05:08:11.851Z,7.39
2018-11-04T05:09:11.869Z,7.48
2018-11-04T05:10:11.884Z,7.48
2018-11-04T05:11:11.902Z,7.33
2018-11-04T05:12:11.922Z,7.25
2018-11-04T05:13:11.956Z,7.18
2018-11-04T05:14:11.960Z,6.97
2018-11-04T05:15:11.965Z,6.92
2018-11-04T05:16:11.986Z,6.87
2018-11-04T05:17:12.027Z,6.93
2018-11-04T05:18:12.029Z,6.82
2018-11-04T05:19:12.043Z,6.96
2018-11-04T05:20:12.060Z,6.84
2018-11-04T05:21:12.075Z,6.82
2018-11-04T05:22:12.098Z,6.84
2018-11-04T05:23:12.126Z,7.07
2018-11-04T05:24:12.132Z,6.97
2018-11-04T05:25:12.150Z,7.15
2018-11-04T05:26:12.165Z,7.07
2018-11-04T05:27:12.184Z,7.18
2018-11-04T05:28:12.194Z,7.10
2018-11-04T05:29:12.212Z,7.10
2018-11-04T05:30:12.232Z,7.05
2018-11-04T05:31:12.255Z,7.13
2018-11-04T05:32:12.273Z,6.96
2018-11-04T05:33:12.284Z,7.15
2018-11-04T05:34:12.312Z,7.03
2018-11-04T05:35:12.319Z,7.00
2018-11-04T05:36:12.369Z,6.82
2018-11-04T05:37:12.351Z,7.00
2018-11-04T05:38:12.378Z,6.99
2018-11-04T05:39:12.385Z,7.13
2018-11-04T05:40:12.405Z,7.23
2018-11-04T05:41:12.420Z,7.31
2018-11-04T05:42:12.433Z,7.20
2018-11-04T05:43:12.458Z,7.02
2018-11-04T05:44:12.473Z,7.20
2018-11-04T05:45:12.489Z,7.21
2018-11-04T05:46:12.509Z,7.36
2018-11-04T05:47:12.521Z,7.38
2018-11-04T05:48:12.536Z,7.45
2018-11-04T05:49:12.553Z,7.38
2018-11-04T05:50:12.575Z,7.38
2018-11-04T05:51:12.585Z,7.32
2018-11-04T05:52:12.614Z,7.40
2018-11-04T05:53:12.624Z,7.28
2018-11-04T05:54:12.654Z,7.28
2018-11-04T05:55:12.666Z,7.31
2018-11-04T05:56:12.672Z,7.06
2018-11-04T05:57:12.689Z,7.28
2018-11-04T05:58:12.711Z,7.24
2018-11-04T05:59:12.746Z,7.15
2018-11-04T06:00:12.757Z,7.20
2018-11-04T06:01:12.765Z,7.05
2018-11-04T06:02:12.784Z,6.82
2018-11-04T06:03:12.793Z,6.82
2018-11-04T06:04:12.809Z,6.82
2018-11-04T06:05:12.839Z,6.85
2018-11-04T06:06:12.850Z,6.96
2018-11-04T06:07:12.868Z,7.17
2018-11-04T06:08:12.885Z,7.32
2018-11-04T06:09:12.906Z,7.15
2018-11-04T06:10:12.924Z,7.14
2018-11-04T06:11:12.935Z,7.03
2018-11-04T06:12:12.947Z,7.17
2018-11-04T06:13:12.969Z,7.14
2018-11-04T06:14:12.986Z,7.18
2018-11-04T06:15:13.007Z,7.33
2018-11-04T06:16:13.016Z,7.45
2018-11-04T06:17:13.054Z,7.48
2018-11-04T06:18:13.060Z,7.60
2018-11-04T06:19:13.094Z,7.66
2018-11-04T06:20:13.089Z,7.72
2018-11-04T06:21:13.103Z,7.60
2018-11-04T06:22:13.131Z,7.58
2018-11-04T06:23:13.141Z,7.61
2018-11-04T06:24:13.159Z,7.67
2018-11-04T06:25:13.187Z,7.63
2018-11-04T06:26:13.195Z,7.53
2018-11-04T06:27:13.209Z,7.47
2018-11-04T06:28:13.224Z,7.42
2018-11-04T06:29:13.252Z,7.38
2018-11-04T06:30:13.301Z,7.43
2018-11-04T06:31:13.292Z,7.48
2018-11-04T06:32:13.296Z,7.56
2018-11-04T06:33:13.317Z,7.53
2018-11-04T06:34:13.332Z,7.39
2018-11-04T06:35:13.364Z,7.35
2018-11-04T06:36:13.383Z,7.17
2018-11-04T06:37:13.386Z,7.21
2018-11-04T06:38:13.408Z,7.23
2018-11-04T06:39:13.419Z,7.35
2018-11-04T06:40:13.451Z,7.43
2018-11-04T06:41:13.559Z,7.50
2018-11-04T06:42:13.473Z,7.61
2018-11-04T06:43:13.488Z,7.48
2018-11-04T06:44:13.523Z,7.61
2018-11-04T06:45:13.528Z,7.48
2018-11-04T06:46:13.545Z,7.32
2018-11-04T06:47:13.696Z,7.38
2018-11-04T06:48:13.573Z,7.48
2018-11-04T06:49:13.596Z,7.50
2018-11-04T06:50:13.641Z,7.48
2018-11-04T06:51:13.637Z,7.48
2018-11-04T06:52:13.669Z,7.45
2018-11-04T06:53:13.689Z,7.50
2018-11-04T06:54:13.692Z,7.58
2018-11-04T06:55:13.715Z,7.47
2018-11-04T06:56:13.728Z,7.63
2018-11-04T06:57:13.736Z,7.67
2018-11-04T06:58:13.764Z,7.76
2018-11-04T06:59:13.776Z,7.80
2018-11-04T07:00:13.786Z,7.95
2018-11-04T07:01:13.810Z,8.00
2018-11-04T07:02:13.819Z,8.12
2018-11-04T07:03:13.837Z,8.10
2018-11-04T07:04:13.856Z,8.19
2018-11-04T07:05:13.896Z,8.08
2018-11-04T07:06:13.897Z,8.23
2018-11-04T07:07:13.909Z,8.12
2018-11-04T07:08:13.927Z,7.75
2018-11-04T07:09:13.944Z,7.87
2018-11-04T07:10:13.965Z,8.05
2018-11-04T07:11:13.989Z,8.09
2018-11-04T07:12:14.006Z,8.15
2018-11-04T07:13:14.028Z,8.16
2018-11-04T07:14:14.039Z,8.13
2018-11-04T07:15:14.053Z,8.12
2018-11-04T07:16:14.075Z,7.82
2018-11-04T07:17:14.084Z,7.75
2018-11-04T07:18:14.102Z,7.82
2018-11-04T07:19:14.120Z,7.77
2018-11-04T07:20:14.140Z,7.83
2018-11-04T07:21:14.175Z,8.01
2018-11-04T07:22:14.179Z,7.97
2018-11-04T07:23:14.194Z,8.01
2018-11-04T07:24:14.215Z,8.16
2018-11-04T07:25:14.235Z,8.18
2018-11-04T07:26:14.247Z,8.01
2018-11-04T07:27:14.263Z,7.98
2018-11-04T07:28:14.285Z,7.95
2018-11-04T07:29:14.302Z,7.91
2018-11-04T07:30:14.315Z,7.79
2018-11-04T07:31:14.337Z,7.80
2018-11-04T07:32:14.414Z,8.16
2018-11-04T07:33:14.370Z,8.36
2018-11-04T07:34:14.399Z,8.45
2018-11-04T07:35:14.413Z,8.63
2018-11-04T07:36:14.428Z,8.69
2018-11-04T07:37:14.443Z,8.76
2018-11-04T07:38:14.461Z,8.79
2018-11-04T07:39:14.484Z,8.74
2018-11-04T07:40:14.504Z,8.69
2018-11-04T07:41:14.520Z,8.82
2018-11-04T07:42:14.533Z,8.85
2018-11-04T07:43:14.551Z,8.88
2018-11-04T07:44:14.627Z,8.81
2018-11-04T07:45:14.607Z,8.73
2018-11-04T07:46:14.606Z,8.66
2018-11-04T07:47:14.634Z,8.63
2018-11-04T07:48:14.647Z,8.67
2018-11-04T07:49:14.665Z,8.48
2018-11-04T07:50:14.681Z,8.44
2018-11-04T07:51:14.701Z,8.38
2018-11-04T07:52:14.746Z,8.60
2018-11-04T07:53:14.735Z,8.69
2018-11-04T07:54:14.776Z,8.76
2018-11-04T07:55:14.778Z,8.79
2018-11-04T07:56:14.796Z,8.73
2018-11-04T07:57:14.807Z,8.78
2018-11-04T07:58:14.827Z,8.85
2018-11-04T07:59:14.847Z,8.82
2018-11-04T08:00:14.868Z,8.67
2018-11-04T08:01:14.882Z,8.58
2018-11-04T08:02:14.900Z,8.73
2018-11-04T08:03:14.920Z,8.74
2018-11-04T08:04:15.033Z,8.82
2018-11-04T08:05:14.955Z,8.66
2018-11-04T08:06:14.984Z,8.79
2018-11-04T08:07:15.009Z,9.02
2018-11-04T08:08:15.013Z,9.23
2018-11-04T08:09:15.032Z,9.39
2018-11-04T08:10:15.045Z,9.43
2018-11-04T08:11:15.073Z,9.54
2018-11-04T08:12:15.090Z,9.51
2018-11-04T08:13:15.108Z,9.41
2018-11-04T08:14:15.122Z,9.32
2018-11-04T08:15:15.144Z,9.13
2018-11-04T08:16:15.166Z,9.14
2018-11-04T08:17:15.173Z,9.11
2018-11-04T08:18:15.195Z,8.92
2018-11-04T08:19:15.207Z,8.99
2018-11-04T08:20:15.230Z,9.13
2018-11-04T08:21:15.269Z,9.02
2018-11-04T08:22:15.274Z,9.02
2018-11-04T08:23:15.287Z,8.92
2018-11-04T08:24:15.311Z,9.00
2018-11-04T08:25:15.327Z,9.32
2018-11-04T08:26:15.341Z,9.50
2018-11-04T08:27:15.359Z,9.64
2018-11-04T08:28:15.378Z,9.66
2018-11-04T08:29:15.394Z,9.77
2018-11-04T08:30:15.440Z,9.79
2018-11-04T08:31:15.447Z,9.73
2018-11-04T08:32:15.463Z,9.97
2018-11-04T08:33:15.496Z,10.13
2018-11-04T08:34:15.500Z,9.98
2018-11-04T08:35:15.515Z,9.69
2018-11-04T08:36:15.525Z,9.68
2018-11-04T08:37:15.545Z,9.73
2018-11-04T08:38:15.560Z,9.92
2018-11-04T08:39:15.584Z,9.87
2018-11-04T08:40:15.671Z,9.82
2018-11-04T08:41:15.626Z,9.76
2018-11-04T08:42:15.635Z,9.74
2018-11-04T08:43:15.657Z,9.87
2018-11-04T08:44:15.680Z,9.86
2018-11-04T08:45:15.692Z,10.01
2018-11-04T08:46:15.713Z,9.89
2018-11-04T08:47:15.730Z,10.02
2018-11-04T08:48:15.759Z,10.05
2018-11-04T08:49:15.772Z,10.16
2018-11-04T08:50:15.788Z,10.49
2018-11-04T08:51:15.805Z,10.57
2018-11-04T08:52:15.823Z,10.72
2018-11-04T08:53:15.858Z,10.93
2018-11-04T08:54:15.874Z,10.96
2018-11-04T08:55:15.883Z,11.04
2018-11-04T08:56:15.910Z,11.10
2018-11-04T08:57:15.921Z,11.11
2018-11-04T08:58:15.991Z,11.22
2018-11-04T08:59:15.960Z,11.23
2018-11-04T09:00:16.107Z,11.30
2018-11-04T09:01:16.006Z,11.41
2018-11-04T09:02:16.028Z,11.40
2018-11-04T09:03:16.075Z,11.48
2018-11-04T09:04:16.062Z,11.47
2018-11-04T09:05:16.080Z,11.51
2018-11-04T09:06:16.119Z,11.48
2018-11-04T09:07:16.126Z,11.30
2018-11-04T09:08:16.138Z,11.30
2018-11-04T09:09:16.153Z,11.44
2018-11-04T09:10:16.187Z,11.41
2018-11-04T09:11:16.187Z,11.23
2018-11-04T09:12:16.219Z,11.14
2018-11-04T09:13:16.235Z,11.14
2018-11-04T09:14:16.357Z,11.11
2018-11-04T09:15:16.271Z,11.14
2018-11-04T09:16:16.290Z,11.52
2018-11-04T09:17:16.318Z,11.83
2018-11-04T09:18:16.326Z,12.06
2018-11-04T09:19:16.348Z,12.21
2018-11-04T09:20:16.369Z,12.27
2018-11-04T09:21:16.391Z,12.32
2018-11-04T09:22:16.490Z,12.40
2018-11-04T09:23:16.433Z,12.45
2018-11-04T09:24:16.449Z,12.57
2018-11-04T09:25:16.465Z,12.61
2018-11-04T09:26:16.501Z,12.73
2018-11-04T09:27:16.520Z,12.65
2018-11-04T09:28:16.532Z,12.76
2018-11-04T09:29:16.598Z,12.80
2018-11-04T09:30:16.566Z,12.87
2018-11-04T09:31:16.589Z,12.86
2018-11-04T09:32:16.607Z,12.85
2018-11-04T09:33:16.632Z,12.64
2018-11-04T09:34:16.692Z,12.50
2018-11-04T09:35:16.742Z,12.57
2018-11-04T09:36:16.881Z,12.54
2018-11-04T09:37:16.712Z,12.47
2018-11-04T09:38:16.731Z,12.58
2018-11-04T09:39:16.754Z,12.87
2018-11-04T09:40:16.769Z,13.04
2018-11-04T09:41:16.790Z,12.95
2018-11-04T09:42:16.811Z,13.04
2018-11-04T09:43:16.829Z,13.13
2018-11-04T09:44:16.848Z,13.01
2018-11-04T09:45:16.871Z,13.12
2018-11-04T09:46:16.915Z,13.23
2018-11-04T09:47:16.913Z,13.08
2018-11-04T09:48:16.939Z,13.11
2018-11-04T09:49:16.963Z,13.25
2018-11-04T09:50:16.980Z,12.97
2018-11-04T09:51:17.002Z,12.83
2018-11-04T09:52:17.012Z,12.75
2018-11-04T09:53:17.033Z,12.97
2018-11-04T09:54:17.053Z,13.00
2018-11-04T09:55:17.074Z,13.23
2018-11-04T09:56:17.157Z,13.28
2018-11-04T09:57:17.116Z,13.35
2018-11-04T09:58:17.139Z,13.44
2018-11-04T09:59:17.184Z,13.37
2018-11-04T10:00:17.175Z,13.31
2018-11-04T10:01:17.202Z,13.39
2018-11-04T10:02:17.219Z,13.33
2018-11-04T10:03:17.242Z,13.23
2018-11-04T10:04:17.257Z,13.19
2018-11-04T10:05:17.279Z,13.12
2018-11-04T10:06:17.302Z,13.27
2018-11-04T10:07:17.454Z,13.09
2018-11-04T10:08:17.344Z,12.95
2018-11-04T10:09:17.370Z,13.20
2018-11-04T10:10:17.384Z,13.37
2018-11-04T10:11:17.403Z,13.59
2018-11-04T10:12:17.429Z,13.57
2018-11-04T10:13:17.462Z,13.46
2018-11-04T10:14:17.466Z,13.33
2018-11-04T10:15:17.485Z,13.30
2018-11-04T10:16:17.591Z,13.50
2018-11-04T10:17:17.532Z,13.56
2018-11-04T10:18:17.551Z,13.62
2018-11-04T10:19:17.842Z,13.68
2018-11-04T10:20:17.880Z,13.78
2018-11-04T10:21:17.609Z,13.97
2018-11-04T10:22:17.663Z,13.96
2018-11-04T10:23:17.650Z,14.15
2018-11-04T10:24:17.679Z,14.14
2018-11-04T10:25:17.691Z,14.18
2018-11-04T10:26:17.712Z,14.14
2018-11-04T10:27:17.739Z,14.25
2018-11-04T10:28:17.755Z,14.15
2018-11-04T10:29:17.778Z,14.04
2018-11-04T10:30:17.921Z,13.44
2018-11-04T10:31:17.847Z,13.67
2018-11-04T10:32:17.840Z,13.77
2018-11-04T10:33:17.869Z,13.78
2018-11-04T10:34:17.875Z,13.86
2018-11-04T10:35:17.894Z,13.83
2018-11-04T10:36:17.972Z,13.72
2018-11-04T10:37:18.022Z,13.74
2018-11-04T10:38:17.964Z,13.62
2018-11-04T10:39:17.976Z,13.87
2018-11-04T10:40:17.998Z,14.00
2018-11-04T10:41:18.028Z,14.15
2018-11-04T10:42:18.089Z,14.26
2018-11-04T10:43:18.063Z,14.30
2018-11-04T10:44:18.086Z,14.33
2018-11-04T10:45:18.109Z,14.25
2018-11-04T10:46:18.158Z,14.30
2018-11-04T10:47:18.178Z,14.54
2018-11-04T10:48:18.182Z,14.44
2018-11-04T10:49:18.220Z,14.37
2018-11-04T10:50:18.247Z,14.12
2018-11-04T10:51:18.248Z,13.97
2018-11-04T10:52:19.080Z,14.04
2018-11-04T10:53:18.275Z,14.18
2018-11-04T10:54:18.289Z,14.12
2018-11-04T10:55:18.336Z,14.26
2018-11-04T10:56:18.337Z,14.36
2018-11-04T10:57:18.359Z,14.55
2018-11-04T10:58:18.409Z,14.63
2018-11-04T10:59:18.400Z,14.73
2018-11-04T11:00:18.427Z,14.72
2018-11-04T11:01:18.449Z,14.73
2018-11-04T11:02:18.458Z,14.94
2018-11-04T11:03:18.478Z,15.00
2018-11-04T11:04:18.518Z,15.11
2018-11-04T11:05:18.543Z,15.09
2018-11-04T11:06:18.564Z,15.15
2018-11-04T11:07:18.572Z,15.18
2018-11-04T11:08:18.593Z,15.11
2018-11-04T11:09:18.607Z,15.14
2018-11-04T11:10:18.629Z,15.19
2018-11-04T11:11:18.656Z,15.14
2018-11-04T11:12:18.668Z,15.24
2018-11-04T11:13:18.705Z,15.24
2018-11-04T11:14:18.726Z,15.36
2018-11-04T11:15:18.734Z,15.18
2018-11-04T11:16:18.755Z,15.00
2018-11-04T11:17:18.781Z,14.96
2018-11-04T11:18:18.806Z,15.21
2018-11-04T11:19:18.820Z,15.17
2018-11-04T11:20:18.843Z,15.42
2018-11-04T11:21:18.873Z,15.54
2018-11-04T11:22:18.882Z,15.51
2018-11-04T11:23:19.069Z,15.54
2018-11-04T11:24:18.934Z,15.46
2018-11-04T11:25:18.965Z,15.51
2018-11-04T11:26:18.976Z,15.55
2018-11-04T11:27:18.989Z,15.59
2018-11-04T11:28:19.024Z,15.58
2018-11-04T11:29:19.055Z,15.00
2018-11-04T11:30:19.220Z,15.15
2018-11-04T11:31:19.080Z,15.37
2018-11-04T11:32:19.101Z,15.42
2018-11-04T11:33:19.125Z,15.40
2018-11-04T11:34:19.153Z,15.54
2018-11-04T11:35:19.165Z,15.54
2018-11-04T11:36:19.187Z,15.80
2018-11-04T11:37:19.297Z,15.62
2018-11-04T11:38:19.232Z,15.59
2018-11-04T11:39:19.258Z,15.61
2018-11-04T11:40:19.282Z,15.58
2018-11-04T11:41:19.312Z,15.40
2018-11-04T11:42:19.367Z,15.10
2018-11-04T11:43:19.342Z,15.21
2018-11-04T11:44:19.367Z,15.47
2018-11-04T11:45:19.384Z,15.68
2018-11-04T11:46:19.406Z,15.73
2018-11-04T11:47:19.431Z,15.59
2018-11-04T11:48:19.453Z,15.68
2018-11-04T11:49:19.475Z,15.82
2018-11-04T11:50:19.489Z,15.82
2018-11-04T11:51:19.519Z,15.92
2018-11-04T11:52:19.550Z,15.73
2018-11-04T11:53:19.560Z,15.43
2018-11-04T11:54:19.583Z,15.43
2018-11-04T11:55:19.601Z,15.73
2018-11-04T11:56:19.622Z,15.95
2018-11-04T11:57:19.648Z,16.09
2018-11-04T11:58:19.667Z,16.02
2018-11-04T11:59:19.702Z,15.68
2018-11-04T12:00:19.717Z,15.57
2018-11-04T12:01:19.736Z,15.55
2018-11-04T12:02:19.872Z,15.68
2018-11-04T12:03:19.779Z,15.86
2018-11-04T12:04:19.799Z,15.82
2018-11-04T12:05:19.838Z,15.95
2018-11-04T12:06:19.845Z,16.04
2018-11-04T12:07:19.868Z,16.04
2018-11-04T12:08:19.887Z,16.12
2018-11-04T12:09:19.906Z,16.12
2018-11-04T12:10:19.933Z,16.05
2018-11-04T12:11:19.966Z,16.10
2018-11-04T12:12:19.973Z,16.09
2018-11-04T12:13:19.998Z,16.05
2018-11-04T12:14:20.023Z,16.04
2018-11-04T12:15:20.051Z,15.98
2018-11-04T12:16:20.072Z,16.00
2018-11-04T12:17:20.091Z,15.58
2018-11-04T12:18:20.135Z,15.57
2018-11-04T12:19:20.131Z,15.42
2018-11-04T12:20:20.150Z,15.46
2018-11-04T12:21:20.193Z,15.62
2018-11-04T12:22:20.191Z,15.54
2018-11-04T12:23:20.236Z,15.73
2018-11-04T12:24:20.250Z,15.55
2018-11-04T12:25:20.257Z,15.67
2018-11-04T12:26:20.292Z,15.62
2018-11-04T12:27:20.306Z,15.64
2018-11-04T12:28:20.325Z,15.67
2018-11-04T12:29:20.348Z,15.77
2018-11-04T12:30:20.374Z,15.54
2018-11-04T12:31:20.389Z,15.54
2018-11-04T12:32:20.417Z,15.57
2018-11-04T12:33:20.439Z,15.76
2018-11-04T12:34:20.480Z,15.82
2018-11-04T12:35:20.626Z,15.80
2018-11-04T12:36:20.519Z,15.57
2018-11-04T12:37:20.523Z,15.47
2018-11-04T12:38:20.552Z,15.59
2018-11-04T12:39:20.560Z,15.65
2018-11-04T12:40:20.603Z,15.79
2018-11-04T12:41:20.624Z,15.80
2018-11-04T12:42:20.637Z,15.84
2018-11-04T12:43:20.668Z,15.75
2018-11-04T12:44:20.673Z,15.86
2018-11-04T12:45:20.711Z,15.79
2018-11-04T12:46:20.739Z,15.68
2018-11-04T12:47:20.741Z,15.86
2018-11-04T12:48:20.761Z,15.95
2018-11-04T12:49:20.795Z,15.80
2018-11-04T12:50:20.810Z,15.79
2018-11-04T12:51:20.827Z,15.65
2018-11-04T12:52:20.855Z,15.61
2018-11-04T12:53:20.874Z,15.70
2018-11-04T12:54:20.890Z,15.57
2018-11-04T12:55:20.912Z,15.62
2018-11-04T12:56:20.933Z,15.52
2018-11-04T12:57:20.981Z,15.64
2018-11-04T12:58:20.990Z,15.55
2018-11-04T12:59:21.004Z,15.72
2018-11-04T13:00:21.026Z,15.76
2018-11-04T13:01:21.043Z,15.55
2018-11-04T13:02:21.107Z,15.43
2018-11-04T13:03:21.104Z,15.49
2018-11-04T13:04:21.137Z,15.37
2018-11-04T13:05:21.131Z,15.00
2018-11-04T13:06:21.153Z,15.21
2018-11-04T13:07:21.181Z,15.49
2018-11-04T13:08:21.194Z,15.55
2018-11-04T13:09:21.217Z,15.61